Terminal Aerodrome Forecast
Issued by NWS Jackson, KY

Home | Current Version | Previous Version | Text Only | Print | Product List | Glossary On
Versions: 1 2 3 4 5 6 7 8 9 10 11 12 13 14 15 16 17 18 19 20 21
000
FTUS43 KJKL 281140
TAFLOZ
TAF
KLOZ 281140Z 2812/2912 26005KT P6SM VCSH BKN008
     FM281500 27007KT P6SM VCSH BKN020
     FM281900 29007KT P6SM BKN025
     FM290300 VRB03KT P6SM BKN010=

USA.gov is the U.S. government's official web portal to all federal, state and local government web resources and services.